sensor_id;sensor_type;location;lat;lon;timestamp;P1;durP1;ratioP1;P2;durP2;ratioP2
59468;SDS011;45277;52.768;18.262;2022-12-29T00:00:23;12.82;;;5.40;;
59468;SDS011;45277;52.768;18.262;2022-12-29T00:02:15;7.10;;;4.85;;
59468;SDS011;45277;52.768;18.262;2022-12-29T00:03:47;9.07;;;5.20;;
59468;SDS011;45277;52.768;18.262;2022-12-29T00:05:18;11.15;;;5.47;;
59468;SDS011;45277;52.768;18.262;2022-12-29T00:06:51;15.45;;;6.82;;
59468;SDS011;45277;52.768;18.262;2022-12-29T00:08:24;8.30;;;4.50;;
59468;SDS011;45277;52.768;18.262;2022-12-29T00:10:09;6.22;;;3.85;;
59468;SDS011;45277;52.768;18.262;2022-12-29T00:11:41;7.35;;;4.80;;
59468;SDS011;45277;52.768;18.262;2022-12-29T00:13:13;11.20;;;5.90;;
59468;SDS011;45277;52.768;18.262;2022-12-29T00:15:03;6.55;;;4.38;;
59468;SDS011;45277;52.768;18.262;2022-12-29T00:16:55;11.18;;;6.22;;
59468;SDS011;45277;52.768;18.262;2022-12-29T00:18:27;4.22;;;3.70;;
59468;SDS011;45277;52.768;18.262;2022-12-29T00:19:58;5.43;;;3.97;;
59468;SDS011;45277;52.768;18.262;2022-12-29T00:21:48;6.75;;;4.72;;
59468;SDS011;45277;52.768;18.262;2022-12-29T00:23:38;23.88;;;8.35;;
59468;SDS011;45277;52.768;18.262;2022-12-29T00:25:28;9.18;;;5.30;;
59468;SDS011;45277;52.768;18.262;2022-12-29T00:27:18;11.55;;;5.97;;
59468;SDS011;45277;52.768;18.262;2022-12-29T00:29:09;10.35;;;6.65;;
59468;SDS011;45277;52.768;18.262;2022-12-29T00:30:59;9.23;;;5.70;;
59468;SDS011;45277;52.768;18.262;2022-12-29T00:32:49;9.43;;;5.75;;
59468;SDS011;45277;52.768;18.262;2022-12-29T00:34:39;11.07;;;5.10;;
59468;SDS011;45277;52.768;18.262;2022-12-29T00:36:35;16.97;;;6.33;;
59468;SDS011;45277;52.768;18.262;2022-12-29T00:39:59;7.47;;;4.68;;
59468;SDS011;45277;52.768;18.262;2022-12-29T00:41:50;9.50;;;5.47;;
59468;SDS011;45277;52.768;18.262;2022-12-29T00:43:40;7.82;;;4.65;;
59468;SDS011;45277;52.768;18.262;2022-12-29T00:45:30;9.05;;;4.72;;
59468;SDS011;45277;52.768;18.262;2022-12-29T00:47:01;12.55;;;5.85;;
59468;SDS011;45277;52.768;18.262;2022-12-29T00:48:34;7.47;;;4.45;;
59468;SDS011;45277;52.768;18.262;2022-12-29T00:50:25;9.57;;;5.28;;
59468;SDS011;45277;52.768;18.262;2022-12-29T00:52:06;15.50;;;6.07;;
59468;SDS011;45277;52.768;18.262;2022-12-29T00:53:39;11.55;;;5.00;;
59468;SDS011;45277;52.768;18.262;2022-12-29T00:55:10;18.90;;;7.32;;
59468;SDS011;45277;52.768;18.262;2022-12-29T00:56:42;11.20;;;5.00;;
59468;SDS011;45277;52.768;18.262;2022-12-29T00:58:13;10.88;;;5.85;;
59468;SDS011;45277;52.768;18.262;2022-12-29T00:59:45;15.45;;;6.35;;
59468;SDS011;45277;52.768;18.262;2022-12-29T01:01:16;6.35;;;4.22;;
59468;SDS011;45277;52.768;18.262;2022-12-29T01:02:48;5.43;;;3.40;;
59468;SDS011;45277;52.768;18.262;2022-12-29T01:04:23;7.45;;;4.55;;
59468;SDS011;45277;52.768;18.262;2022-12-29T01:05:55;6.13;;;4.10;;
59468;SDS011;45277;52.768;18.262;2022-12-29T01:07:27;6.43;;;4.63;;
59468;SDS011;45277;52.768;18.262;2022-12-29T01:08:59;12.73;;;6.53;;
59468;SDS011;45277;52.768;18.262;2022-12-29T01:12:49;10.00;;;4.97;;
59468;SDS011;45277;52.768;18.262;2022-12-29T01:14:22;7.82;;;4.32;;
59468;SDS011;45277;52.768;18.262;2022-12-29T01:15:54;8.80;;;5.32;;
59468;SDS011;45277;52.768;18.262;2022-12-29T01:17:26;8.95;;;5.07;;
59468;SDS011;45277;52.768;18.262;2022-12-29T01:18:57;8.40;;;4.57;;
59468;SDS011;45277;52.768;18.262;2022-12-29T01:20:29;7.70;;;4.45;;
59468;SDS011;45277;52.768;18.262;2022-12-29T01:22:00;10.20;;;4.95;;
59468;SDS011;45277;52.768;18.262;2022-12-29T01:23:32;9.00;;;5.68;;
59468;SDS011;45277;52.768;18.262;2022-12-29T01:25:04;7.05;;;4.78;;
59468;SDS011;45277;52.768;18.262;2022-12-29T01:26:36;13.73;;;5.03;;
59468;SDS011;45277;52.768;18.262;2022-12-29T01:28:08;6.55;;;4.40;;
59468;SDS011;45277;52.768;18.262;2022-12-29T01:29:39;9.07;;;4.63;;
59468;SDS011;45277;52.768;18.262;2022-12-29T01:31:12;5.40;;;3.72;;
59468;SDS011;45277;52.768;18.262;2022-12-29T01:32:45;5.40;;;3.53;;
59468;SDS011;45277;52.768;18.262;2022-12-29T01:34:16;10.27;;;5.43;;
59468;SDS011;45277;52.768;18.262;2022-12-29T01:35:48;4.15;;;3.30;;
59468;SDS011;45277;52.768;18.262;2022-12-29T01:37:19;8.23;;;5.35;;
59468;SDS011;45277;52.768;18.262;2022-12-29T01:38:51;9.85;;;5.07;;
59468;SDS011;45277;52.768;18.262;2022-12-29T01:40:22;5.72;;;3.90;;
59468;SDS011;45277;52.768;18.262;2022-12-29T01:41:54;8.95;;;5.20;;
59468;SDS011;45277;52.768;18.262;2022-12-29T01:43:43;8.88;;;4.68;;
59468;SDS011;45277;52.768;18.262;2022-12-29T01:45:17;7.18;;;4.10;;
59468;SDS011;45277;52.768;18.262;2022-12-29T01:46:49;5.50;;;4.28;;
59468;SDS011;45277;52.768;18.262;2022-12-29T01:48:22;5.97;;;4.20;;
59468;SDS011;45277;52.768;18.262;2022-12-29T01:49:54;8.35;;;4.43;;
59468;SDS011;45277;52.768;18.262;2022-12-29T01:51:28;11.48;;;5.88;;
59468;SDS011;45277;52.768;18.262;2022-12-29T01:53:03;7.53;;;4.30;;
59468;SDS011;45277;52.768;18.262;2022-12-29T01:54:48;8.98;;;5.10;;
59468;SDS011;45277;52.768;18.262;2022-12-29T01:56:24;9.60;;;6.30;;
59468;SDS011;45277;52.768;18.262;2022-12-29T01:57:56;7.53;;;5.30;;
59468;SDS011;45277;52.768;18.262;2022-12-29T01:59:34;10.45;;;5.53;;
59468;SDS011;45277;52.768;18.262;2022-12-29T02:01:10;12.15;;;5.85;;
59468;SDS011;45277;52.768;18.262;2022-12-29T02:02:44;7.88;;;4.88;;
59468;SDS011;45277;52.768;18.262;2022-12-29T02:04:18;10.80;;;6.53;;
59468;SDS011;45277;52.768;18.262;2022-12-29T02:05:59;12.23;;;4.45;;
59468;SDS011;45277;52.768;18.262;2022-12-29T02:07:36;11.20;;;6.20;;
59468;SDS011;45277;52.768;18.262;2022-12-29T02:09:09;13.82;;;6.60;;
59468;SDS011;45277;52.768;18.262;2022-12-29T02:10:40;10.35;;;6.30;;
59468;SDS011;45277;52.768;18.262;2022-12-29T02:12:16;11.05;;;7.03;;
59468;SDS011;45277;52.768;18.262;2022-12-29T02:13:49;10.68;;;6.55;;
59468;SDS011;45277;52.768;18.262;2022-12-29T02:15:31;11.75;;;6.47;;
59468;SDS011;45277;52.768;18.262;2022-12-29T02:17:43;13.35;;;6.90;;
59468;SDS011;45277;52.768;18.262;2022-12-29T02:28:00;8.07;;;5.25;;
59468;SDS011;45277;52.768;18.262;2022-12-29T02:35:48;8.10;;;4.85;;
59468;SDS011;45277;52.768;18.262;2022-12-29T02:37:50;4.13;;;3.33;;
59468;SDS011;45277;52.768;18.262;2022-12-29T02:41:15;12.10;;;6.20;;
59468;SDS011;45277;52.768;18.262;2022-12-29T02:43:54;10.80;;;6.88;;
59468;SDS011;45277;52.768;18.262;2022-12-29T02:47:23;12.85;;;6.72;;
59468;SDS011;45277;52.768;18.262;2022-12-29T02:51:18;8.82;;;5.18;;
59468;SDS011;45277;52.768;18.262;2022-12-29T02:53:01;15.38;;;6.32;;
59468;SDS011;45277;52.768;18.262;2022-12-29T02:54:38;8.82;;;5.72;;
59468;SDS011;45277;52.768;18.262;2022-12-29T02:56:13;8.30;;;5.20;;
59468;SDS011;45277;52.768;18.262;2022-12-29T02:57:45;11.93;;;6.32;;
59468;SDS011;45277;52.768;18.262;2022-12-29T02:59:16;9.50;;;6.18;;
59468;SDS011;45277;52.768;18.262;2022-12-29T03:00:54;7.10;;;4.20;;
59468;SDS011;45277;52.768;18.262;2022-12-29T03:02:33;9.63;;;5.85;;
59468;SDS011;45277;52.768;18.262;2022-12-29T03:04:28;7.97;;;4.50;;
59468;SDS011;45277;52.768;18.262;2022-12-29T03:06:16;10.18;;;4.50;;
59468;SDS011;45277;52.768;18.262;2022-12-29T03:10:05;10.60;;;5.43;;
59468;SDS011;45277;52.768;18.262;2022-12-29T03:11:54;11.18;;;4.57;;
59468;SDS011;45277;52.768;18.262;2022-12-29T03:14:16;6.13;;;3.95;;
59468;SDS011;45277;52.768;18.262;2022-12-29T03:19:35;10.43;;;6.32;;
59468;SDS011;45277;52.768;18.262;2022-12-29T03:21:17;5.10;;;3.65;;
59468;SDS011;45277;52.768;18.262;2022-12-29T03:23:14;5.85;;;3.60;;
59468;SDS011;45277;52.768;18.262;2022-12-29T03:24:49;10.02;;;3.67;;
59468;SDS011;45277;52.768;18.262;2022-12-29T03:26:28;9.35;;;4.80;;
59468;SDS011;45277;52.768;18.262;2022-12-29T03:28:01;7.53;;;5.05;;
59468;SDS011;45277;52.768;18.262;2022-12-29T03:29:41;5.25;;;3.35;;
59468;SDS011;45277;52.768;18.262;2022-12-29T03:31:17;6.60;;;4.17;;
59468;SDS011;45277;52.768;18.262;2022-12-29T03:32:54;6.70;;;3.28;;
59468;SDS011;45277;52.768;18.262;2022-12-29T03:34:30;6.32;;;3.72;;
59468;SDS011;45277;52.768;18.262;2022-12-29T03:36:03;9.02;;;4.72;;
59468;SDS011;45277;52.768;18.262;2022-12-29T03:37:38;7.70;;;4.85;;
59468;SDS011;45277;52.768;18.262;2022-12-29T03:39:15;13.98;;;7.35;;
59468;SDS011;45277;52.768;18.262;2022-12-29T03:40:50;8.32;;;4.80;;
59468;SDS011;45277;52.768;18.262;2022-12-29T03:42:26;6.85;;;4.07;;
59468;SDS011;45277;52.768;18.262;2022-12-29T03:44:02;6.47;;;4.32;;
59468;SDS011;45277;52.768;18.262;2022-12-29T03:45:36;5.80;;;4.45;;
59468;SDS011;45277;52.768;18.262;2022-12-29T03:47:07;5.05;;;3.28;;
59468;SDS011;45277;52.768;18.262;2022-12-29T03:48:40;8.25;;;4.93;;
59468;SDS011;45277;52.768;18.262;2022-12-29T03:50:12;6.00;;;3.60;;
59468;SDS011;45277;52.768;18.262;2022-12-29T03:51:43;10.57;;;5.32;;
59468;SDS011;45277;52.768;18.262;2022-12-29T03:53:15;6.88;;;4.22;;
59468;SDS011;45277;52.768;18.262;2022-12-29T03:54:46;9.30;;;4.50;;
59468;SDS011;45277;52.768;18.262;2022-12-29T03:56:18;9.45;;;3.75;;
59468;SDS011;45277;52.768;18.262;2022-12-29T03:57:49;6.63;;;4.28;;
59468;SDS011;45277;52.768;18.262;2022-12-29T03:59:21;9.65;;;5.15;;
59468;SDS011;45277;52.768;18.262;2022-12-29T04:00:52;4.30;;;3.10;;
59468;SDS011;45277;52.768;18.262;2022-12-29T04:02:24;10.27;;;5.65;;
59468;SDS011;45277;52.768;18.262;2022-12-29T04:03:55;14.23;;;8.18;;
59468;SDS011;45277;52.768;18.262;2022-12-29T04:05:27;15.38;;;8.45;;
59468;SDS011;45277;52.768;18.262;2022-12-29T04:06:58;16.88;;;10.15;;
59468;SDS011;45277;52.768;18.262;2022-12-29T04:08:30;24.35;;;9.65;;
59468;SDS011;45277;52.768;18.262;2022-12-29T04:10:01;5.45;;;4.47;;
59468;SDS011;45277;52.768;18.262;2022-12-29T04:11:33;7.40;;;4.55;;
59468;SDS011;45277;52.768;18.262;2022-12-29T04:13:05;7.97;;;4.20;;
59468;SDS011;45277;52.768;18.262;2022-12-29T04:14:36;6.43;;;4.03;;
59468;SDS011;45277;52.768;18.262;2022-12-29T04:16:08;7.45;;;3.72;;
59468;SDS011;45277;52.768;18.262;2022-12-29T04:17:39;8.07;;;3.85;;
59468;SDS011;45277;52.768;18.262;2022-12-29T04:19:11;5.03;;;3.70;;
59468;SDS011;45277;52.768;18.262;2022-12-29T04:20:43;9.00;;;4.43;;
59468;SDS011;45277;52.768;18.262;2022-12-29T04:22:30;6.85;;;3.70;;
59468;SDS011;45277;52.768;18.262;2022-12-29T04:24:01;8.77;;;4.82;;
59468;SDS011;45277;52.768;18.262;2022-12-29T04:25:33;9.63;;;3.95;;
59468;SDS011;45277;52.768;18.262;2022-12-29T04:27:05;7.65;;;3.90;;
59468;SDS011;45277;52.768;18.262;2022-12-29T04:28:36;9.57;;;4.93;;
59468;SDS011;45277;52.768;18.262;2022-12-29T04:30:08;5.45;;;3.47;;
59468;SDS011;45277;52.768;18.262;2022-12-29T04:31:40;5.00;;;3.65;;
59468;SDS011;45277;52.768;18.262;2022-12-29T04:33:11;4.03;;;2.92;;
59468;SDS011;45277;52.768;18.262;2022-12-29T04:34:43;4.88;;;2.90;;
59468;SDS011;45277;52.768;18.262;2022-12-29T04:36:14;6.28;;;3.08;;
59468;SDS011;45277;52.768;18.262;2022-12-29T04:37:46;5.57;;;3.63;;
59468;SDS011;45277;52.768;18.262;2022-12-29T04:39:17;5.05;;;3.63;;
59468;SDS011;45277;52.768;18.262;2022-12-29T04:40:49;5.28;;;3.80;;
59468;SDS011;45277;52.768;18.262;2022-12-29T04:42:21;9.40;;;5.28;;
59468;SDS011;45277;52.768;18.262;2022-12-29T04:43:53;9.95;;;5.72;;
59468;SDS011;45277;52.768;18.262;2022-12-29T04:45:24;24.98;;;9.55;;
59468;SDS011;45277;52.768;18.262;2022-12-29T04:46:55;13.50;;;7.18;;
59468;SDS011;45277;52.768;18.262;2022-12-29T04:48:27;15.23;;;7.32;;
59468;SDS011;45277;52.768;18.262;2022-12-29T04:49:58;13.32;;;7.10;;
59468;SDS011;45277;52.768;18.262;2022-12-29T04:51:30;18.45;;;8.98;;
59468;SDS011;45277;52.768;18.262;2022-12-29T04:53:01;11.63;;;6.47;;
59468;SDS011;45277;52.768;18.262;2022-12-29T04:54:33;11.07;;;6.03;;
59468;SDS011;45277;52.768;18.262;2022-12-29T04:56:04;5.40;;;4.40;;
59468;SDS011;45277;52.768;18.262;2022-12-29T04:57:37;8.23;;;4.50;;
59468;SDS011;45277;52.768;18.262;2022-12-29T04:59:08;8.23;;;4.45;;
59468;SDS011;45277;52.768;18.262;2022-12-29T05:00:39;5.47;;;3.50;;
59468;SDS011;45277;52.768;18.262;2022-12-29T05:02:11;9.02;;;5.05;;
59468;SDS011;45277;52.768;18.262;2022-12-29T05:03:42;4.60;;;3.05;;
59468;SDS011;45277;52.768;18.262;2022-12-29T05:05:13;4.90;;;3.30;;
59468;SDS011;45277;52.768;18.262;2022-12-29T05:06:45;3.70;;;2.90;;
59468;SDS011;45277;52.768;18.262;2022-12-29T05:08:18;4.20;;;3.35;;
59468;SDS011;45277;52.768;18.262;2022-12-29T05:09:49;8.85;;;3.15;;
59468;SDS011;45277;52.768;18.262;2022-12-29T05:11:21;3.13;;;2.60;;
59468;SDS011;45277;52.768;18.262;2022-12-29T05:12:52;4.35;;;3.55;;
59468;SDS011;45277;52.768;18.262;2022-12-29T05:14:23;7.68;;;4.35;;
59468;SDS011;45277;52.768;18.262;2022-12-29T05:15:55;6.43;;;3.10;;
59468;SDS011;45277;52.768;18.262;2022-12-29T05:17:27;4.95;;;3.40;;
59468;SDS011;45277;52.768;18.262;2022-12-29T05:18:58;4.80;;;3.22;;
59468;SDS011;45277;52.768;18.262;2022-12-29T05:20:30;6.40;;;4.35;;
59468;SDS011;45277;52.768;18.262;2022-12-29T05:22:01;5.45;;;3.10;;
59468;SDS011;45277;52.768;18.262;2022-12-29T05:23:33;7.63;;;4.25;;
59468;SDS011;45277;52.768;18.262;2022-12-29T05:25:04;5.28;;;3.53;;
59468;SDS011;45277;52.768;18.262;2022-12-29T05:26:36;8.35;;;4.47;;
59468;SDS011;45277;52.768;18.262;2022-12-29T05:28:07;14.48;;;6.28;;
59468;SDS011;45277;52.768;18.262;2022-12-29T05:29:39;4.13;;;2.83;;
59468;SDS011;45277;52.768;18.262;2022-12-29T05:31:11;8.32;;;4.80;;
59468;SDS011;45277;52.768;18.262;2022-12-29T05:32:42;10.82;;;4.13;;
59468;SDS011;45277;52.768;18.262;2022-12-29T05:34:14;13.48;;;8.02;;
59468;SDS011;45277;52.768;18.262;2022-12-29T05:35:45;5.10;;;3.40;;
59468;SDS011;45277;52.768;18.262;2022-12-29T05:37:16;15.40;;;7.32;;
59468;SDS011;45277;52.768;18.262;2022-12-29T05:38:49;9.43;;;5.53;;
59468;SDS011;45277;52.768;18.262;2022-12-29T05:40:20;13.57;;;6.63;;
59468;SDS011;45277;52.768;18.262;2022-12-29T05:41:51;19.90;;;10.50;;
59468;SDS011;45277;52.768;18.262;2022-12-29T05:43:23;10.82;;;7.20;;
59468;SDS011;45277;52.768;18.262;2022-12-29T05:44:54;7.95;;;4.07;;
59468;SDS011;45277;52.768;18.262;2022-12-29T05:46:26;5.88;;;3.70;;
59468;SDS011;45277;52.768;18.262;2022-12-29T05:47:58;4.85;;;3.10;;
59468;SDS011;45277;52.768;18.262;2022-12-29T05:49:29;9.38;;;5.18;;
59468;SDS011;45277;52.768;18.262;2022-12-29T05:51:00;11.05;;;4.60;;
59468;SDS011;45277;52.768;18.262;2022-12-29T05:52:32;12.65;;;5.15;;
59468;SDS011;45277;52.768;18.262;2022-12-29T05:54:03;14.52;;;7.00;;
59468;SDS011;45277;52.768;18.262;2022-12-29T05:55:35;32.33;;;14.40;;
59468;SDS011;45277;52.768;18.262;2022-12-29T05:57:07;44.08;;;15.50;;
59468;SDS011;45277;52.768;18.262;2022-12-29T05:58:39;32.05;;;13.00;;
59468;SDS011;45277;52.768;18.262;2022-12-29T06:00:10;41.45;;;15.30;;
59468;SDS011;45277;52.768;18.262;2022-12-29T06:01:42;51.72;;;19.67;;
59468;SDS011;45277;52.768;18.262;2022-12-29T06:03:14;15.98;;;7.53;;
59468;SDS011;45277;52.768;18.262;2022-12-29T06:04:45;14.07;;;6.88;;
59468;SDS011;45277;52.768;18.262;2022-12-29T06:06:16;12.88;;;5.68;;
59468;SDS011;45277;52.768;18.262;2022-12-29T06:07:48;15.43;;;6.63;;
59468;SDS011;45277;52.768;18.262;2022-12-29T06:09:19;8.25;;;3.65;;
59468;SDS011;45277;52.768;18.262;2022-12-29T06:10:51;7.07;;;4.32;;
59468;SDS011;45277;52.768;18.262;2022-12-29T06:12:22;6.65;;;4.30;;
59468;SDS011;45277;52.768;18.262;2022-12-29T06:13:54;5.95;;;3.55;;
59468;SDS011;45277;52.768;18.262;2022-12-29T06:15:25;5.97;;;4.35;;
59468;SDS011;45277;52.768;18.262;2022-12-29T06:16:57;5.82;;;4.03;;
59468;SDS011;45277;52.768;18.262;2022-12-29T06:18:28;7.97;;;3.53;;
59468;SDS011;45277;52.768;18.262;2022-12-29T06:20:00;11.25;;;4.40;;
59468;SDS011;45277;52.768;18.262;2022-12-29T06:21:32;8.75;;;4.50;;
59468;SDS011;45277;52.768;18.262;2022-12-29T06:23:04;7.25;;;3.72;;
59468;SDS011;45277;52.768;18.262;2022-12-29T06:24:36;8.48;;;2.88;;
59468;SDS011;45277;52.768;18.262;2022-12-29T06:26:07;8.75;;;4.55;;
59468;SDS011;45277;52.768;18.262;2022-12-29T06:27:38;9.75;;;5.05;;
59468;SDS011;45277;52.768;18.262;2022-12-29T06:29:10;7.25;;;4.20;;
59468;SDS011;45277;52.768;18.262;2022-12-29T06:30:42;5.53;;;3.75;;
59468;SDS011;45277;52.768;18.262;2022-12-29T06:32:16;6.70;;;3.58;;
59468;SDS011;45277;52.768;18.262;2022-12-29T06:33:47;10.77;;;4.13;;
59468;SDS011;45277;52.768;18.262;2022-12-29T06:35:19;5.85;;;2.92;;
59468;SDS011;45277;52.768;18.262;2022-12-29T06:36:52;8.77;;;4.70;;
59468;SDS011;45277;52.768;18.262;2022-12-29T06:38:23;16.38;;;6.28;;
59468;SDS011;45277;52.768;18.262;2022-12-29T06:39:55;14.50;;;5.97;;
59468;SDS011;45277;52.768;18.262;2022-12-29T06:41:26;11.98;;;5.55;;
59468;SDS011;45277;52.768;18.262;2022-12-29T06:42:58;13.80;;;6.80;;
59468;SDS011;45277;52.768;18.262;2022-12-29T06:44:29;9.73;;;3.92;;
59468;SDS011;45277;52.768;18.262;2022-12-29T06:46:00;6.55;;;3.58;;
59468;SDS011;45277;52.768;18.262;2022-12-29T06:47:33;6.28;;;4.20;;
59468;SDS011;45277;52.768;18.262;2022-12-29T06:49:05;7.07;;;3.30;;
59468;SDS011;45277;52.768;18.262;2022-12-29T06:50:36;11.80;;;4.68;;
59468;SDS011;45277;52.768;18.262;2022-12-29T06:52:08;12.23;;;5.10;;
59468;SDS011;45277;52.768;18.262;2022-12-29T06:53:39;15.15;;;6.20;;
59468;SDS011;45277;52.768;18.262;2022-12-29T06:55:10;13.18;;;5.30;;
59468;SDS011;45277;52.768;18.262;2022-12-29T06:56:42;9.60;;;5.32;;
59468;SDS011;45277;52.768;18.262;2022-12-29T06:58:13;10.25;;;4.88;;
59468;SDS011;45277;52.768;18.262;2022-12-29T06:59:45;4.50;;;3.30;;
59468;SDS011;45277;52.768;18.262;2022-12-29T07:01:17;5.65;;;3.85;;
59468;SDS011;45277;52.768;18.262;2022-12-29T07:02:48;4.55;;;2.90;;
59468;SDS011;45277;52.768;18.262;2022-12-29T07:04:19;7.70;;;3.63;;
59468;SDS011;45277;52.768;18.262;2022-12-29T07:05:51;7.00;;;3.92;;
59468;SDS011;45277;52.768;18.262;2022-12-29T07:07:24;6.18;;;4.18;;
59468;SDS011;45277;52.768;18.262;2022-12-29T07:08:56;4.65;;;3.55;;
59468;SDS011;45277;52.768;18.262;2022-12-29T07:10:28;6.05;;;3.67;;
59468;SDS011;45277;52.768;18.262;2022-12-29T07:11:59;6.60;;;4.20;;
59468;SDS011;45277;52.768;18.262;2022-12-29T07:13:31;8.57;;;4.53;;
59468;SDS011;45277;52.768;18.262;2022-12-29T07:15:02;9.68;;;4.95;;
59468;SDS011;45277;52.768;18.262;2022-12-29T07:16:34;11.30;;;5.45;;
59468;SDS011;45277;52.768;18.262;2022-12-29T07:18:05;2.72;;;2.47;;
59468;SDS011;45277;52.768;18.262;2022-12-29T07:19:37;4.65;;;3.60;;
59468;SDS011;45277;52.768;18.262;2022-12-29T07:21:09;11.18;;;5.05;;
59468;SDS011;45277;52.768;18.262;2022-12-29T07:22:40;9.93;;;4.78;;
59468;SDS011;45277;52.768;18.262;2022-12-29T07:24:13;11.25;;;4.43;;
59468;SDS011;45277;52.768;18.262;2022-12-29T07:25:44;7.18;;;3.97;;
59468;SDS011;45277;52.768;18.262;2022-12-29T07:27:15;5.22;;;3.40;;
59468;SDS011;45277;52.768;18.262;2022-12-29T07:28:47;10.88;;;4.80;;
59468;SDS011;45277;52.768;18.262;2022-12-29T07:30:18;7.78;;;3.42;;
59468;SDS011;45277;52.768;18.262;2022-12-29T07:31:50;15.43;;;5.47;;
59468;SDS011;45277;52.768;18.262;2022-12-29T07:33:21;20.27;;;7.57;;
59468;SDS011;45277;52.768;18.262;2022-12-29T07:34:53;18.58;;;6.18;;
59468;SDS011;45277;52.768;18.262;2022-12-29T07:36:24;5.28;;;3.22;;
59468;SDS011;45277;52.768;18.262;2022-12-29T07:37:56;8.20;;;4.38;;
59468;SDS011;45277;52.768;18.262;2022-12-29T07:39:27;7.85;;;4.45;;
59468;SDS011;45277;52.768;18.262;2022-12-29T07:40:58;8.40;;;4.90;;
59468;SDS011;45277;52.768;18.262;2022-12-29T07:42:30;10.43;;;5.18;;
59468;SDS011;45277;52.768;18.262;2022-12-29T07:44:02;10.50;;;5.22;;
59468;SDS011;45277;52.768;18.262;2022-12-29T07:45:34;14.55;;;6.25;;
59468;SDS011;45277;52.768;18.262;2022-12-29T07:47:05;5.68;;;3.60;;
59468;SDS011;45277;52.768;18.262;2022-12-29T07:48:37;8.73;;;4.90;;
59468;SDS011;45277;52.768;18.262;2022-12-29T07:50:08;9.52;;;5.28;;
59468;SDS011;45277;52.768;18.262;2022-12-29T07:51:40;8.85;;;4.55;;
59468;SDS011;45277;52.768;18.262;2022-12-29T07:53:11;9.15;;;5.15;;
59468;SDS011;45277;52.768;18.262;2022-12-29T07:54:43;11.65;;;5.53;;
59468;SDS011;45277;52.768;18.262;2022-12-29T07:56:14;14.50;;;6.50;;
59468;SDS011;45277;52.768;18.262;2022-12-29T07:57:46;12.52;;;7.25;;
59468;SDS011;45277;52.768;18.262;2022-12-29T07:59:17;12.20;;;6.32;;
59468;SDS011;45277;52.768;18.262;2022-12-29T08:00:53;18.30;;;7.32;;
59468;SDS011;45277;52.768;18.262;2022-12-29T08:02:25;14.30;;;6.18;;
59468;SDS011;45277;52.768;18.262;2022-12-29T08:03:57;12.13;;;5.55;;
59468;SDS011;45277;52.768;18.262;2022-12-29T08:05:29;8.20;;;4.93;;
59468;SDS011;45277;52.768;18.262;2022-12-29T08:07:01;15.10;;;7.20;;
59468;SDS011;45277;52.768;18.262;2022-12-29T08:08:33;18.35;;;9.30;;
59468;SDS011;45277;52.768;18.262;2022-12-29T08:10:04;13.73;;;6.80;;
59468;SDS011;45277;52.768;18.262;2022-12-29T08:11:36;16.17;;;6.95;;
59468;SDS011;45277;52.768;18.262;2022-12-29T08:13:08;19.38;;;8.45;;
59468;SDS011;45277;52.768;18.262;2022-12-29T08:14:40;11.52;;;4.93;;
59468;SDS011;45277;52.768;18.262;2022-12-29T08:16:11;8.90;;;5.55;;
59468;SDS011;45277;52.768;18.262;2022-12-29T08:17:42;20.42;;;8.45;;
59468;SDS011;45277;52.768;18.262;2022-12-29T08:19:14;12.73;;;5.82;;
59468;SDS011;45277;52.768;18.262;2022-12-29T08:20:46;16.58;;;6.90;;
59468;SDS011;45277;52.768;18.262;2022-12-29T08:22:17;10.95;;;5.88;;
59468;SDS011;45277;52.768;18.262;2022-12-29T08:23:49;10.27;;;4.90;;
59468;SDS011;45277;52.768;18.262;2022-12-29T08:25:20;9.05;;;4.50;;
59468;SDS011;45277;52.768;18.262;2022-12-29T08:26:52;13.02;;;6.68;;
59468;SDS011;45277;52.768;18.262;2022-12-29T08:28:24;13.05;;;5.63;;
59468;SDS011;45277;52.768;18.262;2022-12-29T08:29:55;11.55;;;5.88;;
59468;SDS011;45277;52.768;18.262;2022-12-29T08:31:27;13.05;;;6.82;;
59468;SDS011;45277;52.768;18.262;2022-12-29T08:32:58;12.48;;;6.60;;
59468;SDS011;45277;52.768;18.262;2022-12-29T08:34:30;17.58;;;7.72;;
59468;SDS011;45277;52.768;18.262;2022-12-29T08:36:03;7.85;;;4.10;;
59468;SDS011;45277;52.768;18.262;2022-12-29T08:37:36;16.58;;;8.00;;
59468;SDS011;45277;52.768;18.262;2022-12-29T08:39:08;16.20;;;8.60;;
59468;SDS011;45277;52.768;18.262;2022-12-29T08:40:39;19.60;;;9.02;;
59468;SDS011;45277;52.768;18.262;2022-12-29T08:42:11;18.48;;;9.68;;
59468;SDS011;45277;52.768;18.262;2022-12-29T08:43:51;14.40;;;7.95;;
59468;SDS011;45277;52.768;18.262;2022-12-29T08:45:23;19.08;;;8.73;;
59468;SDS011;45277;52.768;18.262;2022-12-29T08:46:54;9.55;;;6.07;;
59468;SDS011;45277;52.768;18.262;2022-12-29T08:48:26;10.98;;;5.28;;
59468;SDS011;45277;52.768;18.262;2022-12-29T08:49:57;19.10;;;8.80;;
59468;SDS011;45277;52.768;18.262;2022-12-29T08:51:29;10.63;;;5.60;;
59468;SDS011;45277;52.768;18.262;2022-12-29T08:53:00;12.77;;;6.88;;
59468;SDS011;45277;52.768;18.262;2022-12-29T08:54:32;13.43;;;7.57;;
59468;SDS011;45277;52.768;18.262;2022-12-29T08:56:04;10.30;;;6.07;;
59468;SDS011;45277;52.768;18.262;2022-12-29T08:57:35;12.93;;;6.57;;
59468;SDS011;45277;52.768;18.262;2022-12-29T08:59:07;11.73;;;5.05;;
59468;SDS011;45277;52.768;18.262;2022-12-29T09:00:39;11.63;;;5.45;;
59468;SDS011;45277;52.768;18.262;2022-12-29T09:02:11;8.00;;;4.13;;
59468;SDS011;45277;52.768;18.262;2022-12-29T09:03:43;8.38;;;4.68;;
59468;SDS011;45277;52.768;18.262;2022-12-29T09:05:15;10.38;;;5.07;;
59468;SDS011;45277;52.768;18.262;2022-12-29T09:06:46;8.35;;;4.10;;
59468;SDS011;45277;52.768;18.262;2022-12-29T09:08:18;7.10;;;3.28;;
59468;SDS011;45277;52.768;18.262;2022-12-29T09:09:50;8.35;;;5.13;;
59468;SDS011;45277;52.768;18.262;2022-12-29T09:11:22;14.20;;;7.00;;
59468;SDS011;45277;52.768;18.262;2022-12-29T09:12:55;17.65;;;6.68;;
59468;SDS011;45277;52.768;18.262;2022-12-29T09:14:26;10.57;;;5.60;;
59468;SDS011;45277;52.768;18.262;2022-12-29T09:15:58;15.80;;;6.30;;
59468;SDS011;45277;52.768;18.262;2022-12-29T09:17:30;8.45;;;4.57;;
59468;SDS011;45277;52.768;18.262;2022-12-29T09:19:14;14.32;;;6.18;;
59468;SDS011;45277;52.768;18.262;2022-12-29T09:20:46;7.05;;;4.00;;
59468;SDS011;45277;52.768;18.262;2022-12-29T09:22:17;5.18;;;3.20;;
59468;SDS011;45277;52.768;18.262;2022-12-29T09:23:49;7.28;;;3.60;;
59468;SDS011;45277;52.768;18.262;2022-12-29T09:25:20;9.52;;;4.18;;
59468;SDS011;45277;52.768;18.262;2022-12-29T09:26:54;8.45;;;4.38;;
59468;SDS011;45277;52.768;18.262;2022-12-29T09:28:26;6.70;;;4.28;;
59468;SDS011;45277;52.768;18.262;2022-12-29T09:29:59;11.93;;;4.82;;
59468;SDS011;45277;52.768;18.262;2022-12-29T09:31:30;5.40;;;3.60;;
59468;SDS011;45277;52.768;18.262;2022-12-29T09:33:02;9.00;;;4.38;;
59468;SDS011;45277;52.768;18.262;2022-12-29T09:34:34;4.13;;;2.78;;
59468;SDS011;45277;52.768;18.262;2022-12-29T09:36:05;7.68;;;4.95;;
59468;SDS011;45277;52.768;18.262;2022-12-29T09:37:37;7.30;;;4.18;;
59468;SDS011;45277;52.768;18.262;2022-12-29T09:39:09;10.13;;;5.13;;
59468;SDS011;45277;52.768;18.262;2022-12-29T09:40:40;11.20;;;4.97;;
59468;SDS011;45277;52.768;18.262;2022-12-29T09:45:23;11.05;;;4.57;;
59468;SDS011;45277;52.768;18.262;2022-12-29T09:47:04;7.40;;;3.78;;
59468;SDS011;45277;52.768;18.262;2022-12-29T09:48:43;10.35;;;4.32;;